Historique des mesures à Cassis (13260), France
Quotidien Résumé Fevrier 26, 2017 Unités:  Métrique    US   Métrique/US
« Précédent (Jour)
Suivant (Jour) »
Quotidien Hebdomadaire Mensuel Annuel Période au choix
  Maximum: Minimum: Moyenne:
Température: TemperatureC °C 7.4 °C 10.5 °C
Point de rosée: DewpointC °C 1.9 °C 4.7 °C
Humidité: Humidity % 55 % 64 %
Vitesse du vent: 0 km/h 0 km/h 0.8 km/h
Rafales: 0 km/h - -
Vent:- - SSW
Pression: PressurehPa hPa 1014.1 hPa -
Précipitations: 0.0 mm    
Historical Graphs
 
 
Mesures pour : Fevrier 26, 2017
Heure Temperature Point de rosée Pression Vent Vitesse du vent Rafales Humidité Pluie (par heure) Conditions
TemperatureC °C DewpointC °C PressurehPa hPa Calm     Humidity % HourlyPrecipMM mm SoftwareType W/m2
00:10 9.2 °C 1.9 °C 1018.2 hPa Calm     60 % 0.0 mm open2300-1.11 W/m2
01:11 8.6 °C 1.9 °C 1018.2 hPa Calm     63 % 0.0 mm open2300-1.11 W/m2
02:10 8.4 °C 2.4 °C 1018.5 hPa Calm   3.4 km/h 66 % 0.0 mm open2300-1.11 W/m2
03:11 8.1 °C 2.6 °C 1018.2 hPa Calm     68 % 0.0 mm open2300-1.11 W/m2
04:10 7.9 °C 3.0 °C 1017.8 hPa Calm     71 % 0.0 mm open2300-1.11 W/m2
05:11 7.8 °C 3.3 °C 1017.8 hPa Calm     73 % 0.0 mm open2300-1.11 W/m2
06:10 7.4 °C 2.9 °C 1017.8 hPa Calm     73 % 0.0 mm open2300-1.11 W/m2
07:11 7.4 °C 3.2 °C 1017.8 hPa Calm     75 % 0.0 mm open2300-1.11 W/m2
08:10 7.8 °C 3.4 °C 1017.8 hPa Calm     74 % 0.0 mm open2300-1.11 W/m2
09:11 9.8 °C 4.4 °C 1018.2 hPa Calm     69 % 0.0 mm open2300-1.11 W/m2
10:10 11.5 °C 4.7 °C 1018.2 hPa Calm     63 % 0.0 mm open2300-1.11 W/m2
11:11 13.4 °C 6.2 °C 1018.2 hPa Calm     62 % 0.0 mm open2300-1.11 W/m2
12:10 14.6 °C 6.4 °C 1017.8 hPa Calm     58 % 0.0 mm open2300-1.11 W/m2
13:11 14.9 °C 6.2 °C 1017.2 hPa SW 10.3 km/h 11.6 km/h 56 % 0.0 mm open2300-1.11 W/m2
14:10 14.8 °C 5.8 °C 1016.1 hPa South 6.9 km/h 6.9 km/h 55 % 0.0 mm open2300-1.11 W/m2
15:11 14.9 °C 6.7 °C 1015.5 hPa Calm   15.6 km/h 58 % 0.0 mm open2300-1.11 W/m2
16:10 14.9 °C 7.7 °C 1015.1 hPa Calm     62 % 0.0 mm open2300-1.11 W/m2
17:11 14.9 °C 7.9 °C 1014.1 hPa South 4.2 km/h 4.2 km/h 63 % 0.0 mm open2300-1.11 W/m2
18:10 13.9 °C 7.4 °C 1014.1 hPa Calm     65 % 0.0 mm open2300-1.11 W/m2
19:11 11.9 °C 6.2 °C 1014.8 hPa Calm     68 % 0.0 mm open2300-1.11 W/m2
20:10 10.8 °C 5.8 °C 1014.8 hPa Calm     71 % 0.0 mm open2300-1.11 W/m2
21:11 10.1 °C 5.7 °C 1015.1 hPa Calm     74 % 0.0 mm open2300-1.11 W/m2
22:10 9.8 °C 5.6 °C 1015.1 hPa Calm     75 % 0.0 mm open2300-1.11 W/m2
23:11 9.7 °C 5.7 °C 1014.8 hPa Calm     76 % 0.0 mm open2300-1.11 W/m2
Observations météo à CASSIS
WU-History script by Weather Underground - 1 mb